• Join FlightAware (Why Join?)
  • Login
  • US Flag 
06:38AM EST


 

Airport Tracker/Info


-or-


 

Live Flight TrackerFlight Track Log ✈ EJA951 ✈ 13-Sep-2013 ✈ KTUS - KFRG

Flight Track Log - Related Links

Times and Time Zones

All times are in EDT time to prevent confusion due to time zone crossing. See the EJA951 flight status page for this flight to view local times or setup timezone preferences in your user account.

Time Position Orientation Groundspeed Altitude Reporting Facility
EDT Latitude Longitude Course Direction KTS MPH feet Rate Location/Type
02:10PM 32.0919 -110.9103 135° Southeast 201 231 3,600  Level Albuquerque Center
02:11PM 32.0494 -110.8564 133° Southeast 228 262 6,800 3,180 Climbing Albuquerque Center
02:11PM 32.0436 -110.8453 122° Southeast 234 269 7,500 3,600 Climbing Albuquerque Center
02:12PM 32.0114 -110.7836 122° Southeast 257 296 10,400 3,000 Climbing Albuquerque Center
02:12PM 32.0139 -110.7764 68° East 250 288 10,700 2,580 Climbing Albuquerque Center
02:13PM 32.0303 -110.6822 78° East 291 335 13,700 1,920 Climbing Albuquerque Center
02:14PM 32.0506 -110.5728 78° East 320 368 14,700 720 Climbing Albuquerque Center
02:15PM 32.0717 -110.4517 78° East 362 417 15,200 480 Climbing Albuquerque Center
02:16PM 32.1000 -110.2950 78° East 396 456 15,800 840 Climbing Albuquerque Center
02:17PM 32.1744 -110.1911 50° Northeast 413 475 17,000 1,320 Climbing Albuquerque Center
02:18PM 32.2503 -110.0892 49° Northeast 414 476 18,600 1,440 Climbing Albuquerque Center
02:19PM 32.3239 -109.9900 49° Northeast 408 470 20,100 1,380 Climbing Albuquerque Center
02:20PM 32.3967 -109.8883 50° Northeast 406 467 21,500 1,380 Climbing Albuquerque Center
02:21PM 32.4719 -109.7522 57° Northeast 419 482 23,000 1,380 Climbing Albuquerque Center
02:22PM 32.5206 -109.6281 65° Northeast 419 482 24,400 1,260 Climbing Albuquerque Center
02:23PM 32.5733 -109.5019 64° Northeast 424 488 25,700 1,200 Climbing Albuquerque Center
02:24PM 32.6247 -109.3739 64° Northeast 429 494 27,000 1,260 Climbing Albuquerque Center
02:25PM 32.6872 -109.2494 59° Northeast 446 513 28,400 1,200 Climbing Albuquerque Center
02:26PM 32.7692 -109.1394 48° Northeast 448 516 29,500 1,140 Climbing Albuquerque Center
02:28PM 32.8561 -109.0258 48° Northeast 453 521 30,800 1,140 Climbing Albuquerque Center
02:29PM 32.9614 -108.8875 48° Northeast 465 535 31,900 780 Climbing Albuquerque Center
02:30PM 33.0508 -108.7667 49° Northeast 478 550 32,500 720 Climbing Albuquerque Center
02:31PM 33.1528 -108.6333 48° Northeast 493 567 33,500 960 Climbing Albuquerque Center
02:32PM 33.2447 -108.5108 48° Northeast 497 572 34,600 1,020 Climbing Albuquerque Center
02:33PM 33.3386 -108.3844 48° Northeast 504 580 35,600 1,140 Climbing Albuquerque Center
02:34PM 33.4317 -108.2606 48° Northeast 504 580 37,000 1,140 Climbing Albuquerque Center
02:35PM 33.5361 -108.1194 48° Northeast 500 575 38,000 1,200 Climbing Albuquerque Center
02:36PM 33.6286 -107.9944 48° Northeast 500 575 39,500 1,320 Climbing Albuquerque Center
02:37PM 33.7186 -107.8722 48° Northeast 493 567 40,800 720 Climbing Albuquerque Center
02:38PM 33.8153 -107.7419 48° Northeast 490 564 41,000 60 Climbing Albuquerque Center
02:39PM 33.9094 -107.6128 49° Northeast 504 580 41,000  Level Albuquerque Center
02:40PM 34.0072 -107.4806 48° Northeast 521 600 41,000  Level Albuquerque Center
02:41PM 34.1053 -107.3433 49° Northeast 533 613 41,000  Level Albuquerque Center
02:42PM 34.2053 -107.2058 49° Northeast 542 624 41,000  Level Albuquerque Center
02:43PM 34.3217 -107.0450 49° Northeast 544 626 41,000  Level Albuquerque Center
02:44PM 34.4297 -106.8961 49° Northeast 548 631 41,000  Level Albuquerque Center
02:45PM 34.5278 -106.7569 49° Northeast 546 628 41,000  Level Albuquerque Center
02:46PM 34.6228 -106.6264 48° Northeast 548 631 41,000  Level Albuquerque Center
02:47PM 34.7200 -106.4844 50° Northeast 547 629 41,000  Level Albuquerque Center
02:48PM 34.8386 -106.3158 49° Northeast 548 631 41,000  Level Albuquerque Center
02:49PM 34.9378 -106.1739 50° Northeast 550 633 41,000  Level Albuquerque Center
02:50PM 35.0369 -106.0331 49° Northeast 550 633 41,000  Level Albuquerque Center
02:51PM 35.1347 -105.8939 49° Northeast 547 629 41,000  Level Albuquerque Center
02:52PM 35.2314 -105.7536 50° Northeast 544 626 41,000  Level Albuquerque Center
02:53PM 35.3289 -105.6125 50° Northeast 547 629 41,000  Level Albuquerque Center
02:54PM 35.4447 -105.4447 50° Northeast 546 628 41,000  Level Albuquerque Center
02:55PM 35.5450 -105.2994 50° Northeast 548 631 41,000  Level Albuquerque Center
02:56PM 35.6431 -105.1539 50° Northeast 547 629 41,000  Level Albuquerque Center
02:57PM 35.7114 -104.9858 63° Northeast 547 629 41,000  Level Albuquerque Center
02:58PM 35.7708 -104.8161 67° East 538 619 41,000  Level Albuquerque Center
03:00PM 35.8308 -104.6433 67° East 538 619 41,000  Level Albuquerque Center
03:01PM 35.8922 -104.4697 66° East 543 625 41,000  Level Albuquerque Center
03:02PM 35.9625 -104.2672 67° East 543 625 41,000  Level Albuquerque Center
03:03PM 36.0225 -104.0953 67° East 540 621 41,000  Level Albuquerque Center
03:04PM 36.0811 -103.9231 67° East 538 619 41,000  Level Albuquerque Center
03:05PM 36.1292 -103.7472 71° East 536 617 41,000  Level Albuquerque Center
03:06PM 36.1764 -103.5714 72° East 534 615 41,000  Level Albuquerque Center
03:07PM 36.2239 -103.3961 71° East 533 613 41,000  Level Albuquerque Center
03:08PM 36.2708 -103.2183 72° East 535 616 41,000  Level Albuquerque Center
03:09PM 36.3172 -103.0406 72° East 537 618 41,000  Level Albuquerque Center
03:10PM 36.3631 -102.8425 74° East 541 623 41,000  Level Albuquerque Center
03:11PM 36.3833 -102.6575 82° East 543 625 41,000  Level Albuquerque Center
03:12PM 36.4058 -102.4750 81° East 539 620 41,000  Level Albuquerque Center
03:13PM 36.4350 -102.2917 79° East 539 620 41,000  Level Albuquerque Center
03:14PM 36.4633 -102.1100 79° East 537 618 41,000  Level Albuquerque Center
03:15PM 36.4969 -101.8889 79° East 541 623 41,000  Level Albuquerque Center
03:16PM 36.5236 -101.7056 80° East 539 620 41,000  Level Albuquerque Center
03:17PM 36.5514 -101.5172 80° East 539 620 41,000  Level Albuquerque Center
03:18PM 36.5900 -101.3128 77° East 540 621 41,000  Level Kansas City Center
03:19PM 36.6394 -101.1464 70° East 539 620 41,000  Level Kansas City Center
03:20PM 36.6958 -100.9531 70° East 536 617 41,000  Level Kansas City Center
03:21PM 36.7442 -100.7856 70° East 537 618 41,000  Level Kansas City Center
03:22PM 36.7919 -100.6167 70° East 540 621 41,000  Level Kansas City Center
03:23PM 36.8469 -100.4200 71° East 541 623 41,000  Level Kansas City Center
03:24PM 36.9025 -100.2244 70° East 540 621 41,000  Level Kansas City Center
03:25PM 36.9469 -100.0656 71° East 538 619 41,000  Level Kansas City Center
03:26PM 36.9953 -99.8897 71° East 535 616 41,000  Level Kansas City Center
03:27PM 37.0494 -99.6939 71° East 535 616 41,000  Level Kansas City Center
03:28PM 37.0939 -99.5272 71° East 531 611 41,000  Level Kansas City Center
03:30PM 37.1492 -99.3244 71° East 532 612 41,000  Level Kansas City Center
03:31PM 37.1958 -99.1497 71° East 530 610 41,000  Level Kansas City Center
03:32PM 37.2425 -98.9725 72° East 531 611 41,000  Level Kansas City Center
03:33PM 37.2894 -98.7983 71° East 531 611 41,000  Level Kansas City Center
03:34PM 37.3347 -98.6256 72° East 526 605 41,000  Level Kansas City Center
03:35PM 37.3792 -98.4519 72° East 524 603 41,000  Level Kansas City Center
03:36PM 37.4339 -98.2444 72° East 524 603 41,000  Level Kansas City Center
03:37PM 37.4775 -98.0728 72° East 521 600 41,000  Level Kansas City Center
03:38PM 37.5208 -97.9014 72° East 520 598 41,000  Level Kansas City Center
03:39PM 37.5650 -97.7294 72° East 522 601 41,000  Level Kansas City Center
03:40PM 37.6089 -97.5572 72° East 521 600 41,000  Level Kansas City Center
03:41PM 37.6608 -97.3522 72° East 516 594 41,000  Level Kansas City Center
03:42PM 37.7033 -97.1794 73° East 518 596 41,000  Level Kansas City Center
03:43PM 37.7472 -97.0069 72° East 520 598 41,000  Level Kansas City Center
03:44PM 37.7900 -96.8308 73° East 525 604 41,000  Level Kansas City Center
03:45PM 37.8328 -96.6536 73° East 527 606 41,000  Level Kansas City Center
03:46PM 37.8756 -96.4767 73° East 527 606 41,000  Level Kansas City Center
03:47PM 37.9264 -96.2650 73° East 525 604 41,000  Level Kansas City Center
03:48PM 37.9708 -96.0789 73° East 523 602 41,000  Level Kansas City Center
03:49PM 38.0111 -95.9100 73° East 523 602 41,000  Level Kansas City Center
03:50PM 38.0569 -95.7114 74° East 527 606 41,000  Level Kansas City Center
03:51PM 38.0972 -95.5394 73° East 531 611 41,000  Level Kansas City Center
03:52PM 38.1431 -95.3397 74° East 530 610 41,000  Level Kansas City Center
03:53PM 38.1819 -95.1681 74° East 531 611 41,000  Level Kansas City Center
03:54PM 38.2272 -94.9681 74° East 529 609 41,000  Level Kansas City Center
03:55PM 38.2661 -94.7983 74° East 528 608 41,000  Level Kansas City Center
03:56PM 38.3103 -94.5992 74° East 525 604 41,000  Level Kansas City Center
03:57PM 38.3478 -94.4289 74° East 525 604 41,000  Level Kansas City Center
03:58PM 38.3917 -94.2289 74° East 526 605 41,000  Level Kansas City Center
04:00PM 38.4275 -94.0631 75° East 525 604 41,000  Level Kansas City Center
04:01PM 38.4653 -93.8836 75° East 523 602 41,000  Level Kansas City Center
04:02PM 38.5056 -93.7017 74° East 527 606 41,000  Level Kansas City Center
04:03PM 38.5522 -93.4831 75° East 529 609 41,000  Level Kansas City Center
04:04PM 38.5903 -93.3014 75° East 529 609 41,000  Level Kansas City Center
04:05PM 38.6281 -93.1194 75° East 527 606 41,000  Level Kansas City Center
04:06PM 38.6669 -92.9364 75° East 529 609 41,000  Level Kansas City Center
04:07PM 38.7036 -92.7558 75° East 525 604 41,000  Level Kansas City Center
04:08PM 38.7411 -92.5739 75° East 524 603 41,000  Level Kansas City Center
04:09PM 38.7769 -92.3911 76° East 525 604 41,000  Level Kansas City Center
04:10PM 38.8133 -92.2106 75° East 523 602 41,000  Level Kansas City Center
04:11PM 38.8564 -91.9936 76° East 522 601 41,000  Level Kansas City Center
04:12PM 38.8908 -91.8103 76° East 522 601 41,000  Level Kansas City Center
04:13PM 38.9247 -91.6344 76° East 523 602 41,000  Level Kansas City Center
04:14PM 38.9597 -91.4531 76° East 523 602 41,000  Level Kansas City Center
04:15PM 38.9950 -91.2728 76° East 522 601 41,000  Level Kansas City Center
04:16PM 39.0292 -91.0917 76° East 521 600 41,000  Level Kansas City Center
04:17PM 39.0639 -90.9106 76° East 522 601 41,000  Level Kansas City Center
04:18PM 39.1050 -90.6928 76° East 521 600 41,000  Level Kansas City Center
04:19PM 39.1400 -90.5089 76° East 523 602 41,000  Level Kansas City Center
04:20PM 39.1722 -90.3253 77° East 523 602 41,000  Level Kansas City Center
04:21PM 39.2056 -90.1411 77° East 524 603 41,000  Level Kansas City Center
04:22PM 39.2375 -89.9589 77° East 521 600 41,000  Level Kansas City Center
04:23PM 39.2697 -89.7767 77° East 520 598 41,000  Level Kansas City Center
04:24PM 39.3011 -89.5953 77° East 519 597 41,000  Level Kansas City Center
04:25PM 39.3336 -89.4128 77° East 520 598 41,000  Level Kansas City Center
04:26PM 39.3706 -89.1939 78° East 521 600 41,000  Level Kansas City Center
04:27PM 39.4014 -89.0125 78° East 519 597 41,000  Level Kansas City Center
04:28PM 39.4322 -88.8300 78° East 517 595 41,000  Level Kansas City Center
04:30PM 39.4614 -88.6503 78° East 515 593 41,000  Level Kansas City Center
04:31PM 39.4906 -88.4717 78° East 513 590 41,000  Level Kansas City Center
04:32PM 39.5256 -88.2533 78° East 514 592 41,000  Level Kansas City Center
04:33PM 39.5558 -88.0692 78° East 515 593 41,000  Level Kansas City Center
04:33PM 39.5689 -87.9803 79° East 518 596 41,000  Level Indianapolis Center
04:34PM 39.5978 -87.7989 78° East 517 595 41,000  Level Indianapolis Center
04:35PM 39.6267 -87.6147 78° East 521 600 41,000  Level Indianapolis Center
04:36PM 39.6553 -87.4303 79° East 523 602 41,000  Level Indianapolis Center
04:37PM 39.7058 -87.2158 73° East 517 595 41,000  Level Indianapolis Center
04:38PM 39.7547 -87.0414 70° East 515 593 41,000  Level Indianapolis Center
04:39PM 39.7744 -86.9719 70° East 514 592 41,000  Level Indianapolis Center
04:40PM 39.8228 -86.7969 70° East 515 593 41,000  Level Indianapolis Center
04:41PM 39.8706 -86.6236 70° East 507 583 41,000  Level Indianapolis Center
04:42PM 39.9183 -86.4486 70° East 507 583 41,000  Level Indianapolis Center
04:43PM 39.9667 -86.2714 70° East 510 587 41,000  Level Indianapolis Center
04:44PM 40.0133 -86.0947 71° East 511 588 41,000  Level Indianapolis Center
04:45PM 40.0608 -85.9169 71° East 514 592 41,000  Level Indianapolis Center
04:46PM 40.1161 -85.7047 71° East 516 594 41,000  Level Indianapolis Center
04:47PM 40.1636 -85.5294 70° East 514 592 41,000  Level Indianapolis Center
04:48PM 40.2086 -85.3508 72° East 518 596 41,000  Level Indianapolis Center
04:49PM 40.2550 -85.1742 71° East 516 594 41,000  Level Indianapolis Center
04:50PM 40.3008 -84.9958 71° East 518 596 41,000  Level Indianapolis Center
04:51PM 40.3561 -84.7783 71° East 525 604 41,000  Level Indianapolis Center
04:52PM 40.4019 -84.5994 71° East 520 598 41,000  Level Indianapolis Center
04:53PM 40.4469 -84.4200 72° East 517 595 41,000  Level Indianapolis Center
04:54PM 40.4908 -84.2419 72° East 513 590 41,000  Level Indianapolis Center
04:55PM 40.5344 -84.0600 72° East 520 598 41,000  Level Indianapolis Center
04:56PM 40.5792 -83.8792 72° East 518 596 41,000  Level Indianapolis Center
04:57PM 40.6225 -83.6961 73° East 522 601 41,000  Level Indianapolis Center
04:58PM 40.6758 -83.4769 72° East 522 601 41,000  Level Indianapolis Center
04:59PM 40.7200 -83.2911 73° East 529 609 41,000  Level Indianapolis Center
05:00PM 40.7617 -83.1172 72° East 528 608 41,000  Level Indianapolis Center
05:01PM 40.8050 -82.9317 73° East 528 608 41,000  Level Indianapolis Center
05:02PM 40.8556 -82.7161 73° East 524 603 41,000  Level Indianapolis Center
05:04PM 40.8972 -82.5317 73° East 522 601 41,000  Level Indianapolis Center
05:05PM 40.9411 -82.3450 73° East 527 606 41,000  Level Indianapolis Center
05:06PM 40.9833 -82.1572 73° East 530 610 41,000  Level Indianapolis Center
05:07PM 41.0256 -81.9686 73° East 533 613 41,000  Level Indianapolis Center
05:08PM 41.0678 -81.7806 73° East 533 613 41,000  Level Indianapolis Center
05:09PM 41.1158 -81.5533 74° East 530 610 41,000  Level Cleveland Center
05:10PM 41.1567 -81.3664 74° East 530 610 41,000  Level Cleveland Center
05:11PM 41.1997 -81.1764 73° East 530 610 41,000  Level Cleveland Center
05:12PM 41.2400 -80.9864 74° East 530 610 41,000  Level Cleveland Center
05:13PM 41.2803 -80.7986 74° East 530 610 41,000  Level Cleveland Center
05:14PM 41.3222 -80.6053 74° East 535 616 41,000  Level Cleveland Center
05:15PM 41.3617 -80.4200 74° East 526 605 41,000  Level Cleveland Center
05:16PM 41.3989 -80.2483 74° East 526 605 41,000  Level Cleveland Center
05:17PM 41.4378 -80.0597 75° East 526 605 41,000  Level Cleveland Center
05:18PM 41.4742 -79.8736 75° East 526 605 41,000  Level Cleveland Center
05:19PM 41.5125 -79.6847 75° East 526 605 41,000  Level Cleveland Center
05:20PM 41.5506 -79.4928 75° East 532 612 41,000  Level Cleveland Center
05:21PM 41.5881 -79.2978 76° East 532 612 41,000  Level Cleveland Center
05:22PM 41.6275 -79.1053 75° East 532 612 41,000  Level Cleveland Center
05:23PM 41.6625 -78.9322 75° East 532 612 41,000  Level Cleveland Center
05:24PM 41.7011 -78.7197 76° East 532 612 41,000  Level Cleveland Center
05:25PM 41.7394 -78.5239 75° East 532 612 41,000  Level Cleveland Center
05:26PM 41.7733 -78.3306 77° East 532 612 41,000  Level Cleveland Center
05:27PM 41.8111 -78.1400 75° East 532 612 41,000  Level Cleveland Center
05:28PM 41.8464 -77.9433 76° East 532 612 41,000  Level Cleveland Center
05:29PM 41.8147 -77.6672 99° East 528 608 41,000  Level New York Center
05:30PM 41.7653 -77.4786 109° East 520 598 41,000  Level New York Center
05:31PM 41.7153 -77.2903 110° East 532 612 41,000  Level New York Center
05:32PM 41.6631 -77.0989 110° East 538 619 41,000  Level New York Center
05:33PM 41.6125 -76.9111 110° East 538 619 41,000  Level New York Center
05:34PM 41.5617 -76.7261 110° East 538 619 41,000  Level New York Center
05:35PM 41.5069 -76.5244 110° East 538 619 41,000  Level New York Center
05:36PM 41.4644 -76.3714 110° East 533 613 41,000 -300 Level New York Center
05:37PM 41.4075 -76.1619 110° East 548 631 40,400 -1,980 Descending New York Center
05:38PM 41.3531 -75.9781 111° Southeast 548 631 37,100 -8,700 Descending New York Center
05:39PM 41.3008 -75.7917 110° East 535 616 23,000 -3,420 Descending New York Center
05:40PM 41.2458 -75.6108 112° Southeast 529 609 30,300 1,380 Climbing New York Center
05:41PM 41.1919 -75.4500 114° Southeast 505 581 25,800 -3,660 Descending New York Center
05:42PM 41.1358 -75.2836 114° Southeast 492 566 23,000 -1,440 Descending New York Center
05:43PM 41.0778 -75.1117 114° Southeast 492 566 23,000  Level New York Center
05:44PM 41.0139 -74.9153 113° Southeast 508 585 23,000  Level New York Center
05:45PM 40.9808 -74.7236 103° East 526 605 23,000  Level New York Center
05:46PM 40.9600 -74.5356 98° East 519 597 23,000 -480 Level New York Center
05:47PM 40.9389 -74.3447 98° East 519 597 22,100 -1,500 Descending New York Center
05:48PM 40.9242 -74.2067 98° East 503 579 20,100 -2,460 Descending New York Center
05:49PM 40.8578 -74.0553 120° Southeast 406 467 17,200 -2,220 Descending New York Center
05:50PM 40.7936 -73.9561 131° Southeast 373 429 15,700 -1,980 Descending New York Center
05:51PM 40.7317 -73.8656 132° Southeast 337 388 13,300 -2,160 Descending New York Center
05:52PM 40.6733 -73.7808 132° Southeast 324 373 11,400 -2,100 Descending New York Center
05:53PM 40.6300 -73.6833 120° Southeast 312 359 9,100 -2,100 Descending New York Center
05:54PM 40.6072 -73.5894 108° East 302 348 7,200 -2,280 Descending New York Center
05:55PM 40.5636 -73.5003 123° Southeast 273 314 4,600 -2,340 Descending New York Center
05:56PM 40.6025 -73.4389 50° Northeast 194 223 2,600 -1,320 Descending New York Center
05:57PM 40.6428 -73.3994 37° Northeast 179 206 2,000 -720 Descending New York Center
05:58PM 40.6631 -73.4250 316° Northwest 101 116 1,200 -720 Descending New York Center
05:59PM 40.6925 -73.4178 11° North 92 106 600 -540 Descending New York Center
06:00PM 40.7239 -73.4164 North 103 119 200 9,180 Descending New York Center
06:01PM 40.7550 -73.4175 358° North 103 119 19,000 18,780 Climbing New York Center
06:03PM 40.7288 -73.4134 North  Level Estimated